sensor_id;sensor_type;location;lat;lon;timestamp;pressure;altitude;pressure_sealevel;temperature;humidity
80781;BME280;70341;56.408;10.874;2024-02-14T00:00:53;101321.73;;;19.04;36.45
80781;BME280;70341;56.408;10.874;2024-02-14T00:03:42;101323.90;;;19.04;36.47
80781;BME280;70341;56.408;10.874;2024-02-14T00:06:12;101326.11;;;19.04;36.42
80781;BME280;70341;56.408;10.874;2024-02-14T00:08:42;101322.39;;;19.03;36.54
80781;BME280;70341;56.408;10.874;2024-02-14T00:11:12;101317.19;;;19.02;36.51
80781;BME280;70341;56.408;10.874;2024-02-14T00:13:42;101319.41;;;19.01;36.60
80781;BME280;70341;56.408;10.874;2024-02-14T00:16:10;101319.56;;;19.02;36.54
80781;BME280;70341;56.408;10.874;2024-02-14T00:18:41;101322.13;;;19.01;36.62
80781;BME280;70341;56.408;10.874;2024-02-14T00:21:10;101324.31;;;19.00;36.70
80781;BME280;70341;56.408;10.874;2024-02-14T00:23:40;101320.55;;;19.00;36.58
80781;BME280;70341;56.408;10.874;2024-02-14T00:26:10;101320.42;;;18.99;36.59
80781;BME280;70341;56.408;10.874;2024-02-14T00:28:40;101325.67;;;18.99;36.58
80781;BME280;70341;56.408;10.874;2024-02-14T00:31:08;101323.40;;;18.98;36.57
80781;BME280;70341;56.408;10.874;2024-02-14T00:33:38;101321.95;;;18.98;36.60
80781;BME280;70341;56.408;10.874;2024-02-14T00:36:11;101323.11;;;18.97;36.73
80781;BME280;70341;56.408;10.874;2024-02-14T00:38:43;101317.05;;;18.96;36.56
80781;BME280;70341;56.408;10.874;2024-02-14T00:41:13;101316.34;;;18.96;36.56
80781;BME280;70341;56.408;10.874;2024-02-14T00:43:43;101316.56;;;18.95;36.69
80781;BME280;70341;56.408;10.874;2024-02-14T00:46:17;101313.36;;;18.95;36.66
80781;BME280;70341;56.408;10.874;2024-02-14T00:48:47;101313.53;;;18.95;36.71
80781;BME280;70341;56.408;10.874;2024-02-14T00:51:17;101313.73;;;18.95;36.66
80781;BME280;70341;56.408;10.874;2024-02-14T00:53:46;101319.04;;;18.93;36.66
80781;BME280;70341;56.408;10.874;2024-02-14T00:56:15;101314.01;;;18.93;36.74
80781;BME280;70341;56.408;10.874;2024-02-14T00:58:45;101317.66;;;18.93;36.73
80781;BME280;70341;56.408;10.874;2024-02-14T01:01:16;101313.33;;;18.92;36.70
80781;BME280;70341;56.408;10.874;2024-02-14T01:03:47;101313.42;;;18.91;36.63
80781;BME280;70341;56.408;10.874;2024-02-14T01:06:16;101310.77;;;18.91;36.65
80781;BME280;70341;56.408;10.874;2024-02-14T01:08:48;101309.71;;;18.90;36.63
80781;BME280;70341;56.408;10.874;2024-02-14T01:11:22;101308.67;;;18.90;36.77
80781;BME280;70341;56.408;10.874;2024-02-14T01:13:51;101312.63;;;18.90;36.71
80781;BME280;70341;56.408;10.874;2024-02-14T01:16:25;101313.72;;;18.90;36.74
80781;BME280;70341;56.408;10.874;2024-02-14T01:18:54;101314.66;;;18.89;36.81
80781;BME280;70341;56.408;10.874;2024-02-14T01:21:24;101317.59;;;18.88;36.77
80781;BME280;70341;56.408;10.874;2024-02-14T01:23:53;101318.14;;;18.88;36.76
80781;BME280;70341;56.408;10.874;2024-02-14T01:26:24;101312.42;;;18.87;36.74
80781;BME280;70341;56.408;10.874;2024-02-14T01:28:52;101313.20;;;18.86;36.79
80781;BME280;70341;56.408;10.874;2024-02-14T01:31:23;101314.49;;;18.85;36.85
80781;BME280;70341;56.408;10.874;2024-02-14T01:33:53;101305.89;;;18.85;36.80
80781;BME280;70341;56.408;10.874;2024-02-14T01:36:24;101308.84;;;18.84;36.75
80781;BME280;70341;56.408;10.874;2024-02-14T01:38:55;101306.69;;;18.84;36.79
80781;BME280;70341;56.408;10.874;2024-02-14T01:41:24;101306.00;;;18.83;36.84
80781;BME280;70341;56.408;10.874;2024-02-14T01:43:54;101303.02;;;18.82;36.88
80781;BME280;70341;56.408;10.874;2024-02-14T01:46:25;101305.16;;;18.82;36.92
80781;BME280;70341;56.408;10.874;2024-02-14T01:48:55;101300.70;;;18.82;36.93
80781;BME280;70341;56.408;10.874;2024-02-14T01:51:25;101299.30;;;18.81;36.86
80781;BME280;70341;56.408;10.874;2024-02-14T01:53:56;101299.68;;;18.81;37.00
80781;BME280;70341;56.408;10.874;2024-02-14T01:56:30;101301.34;;;18.80;36.94
80781;BME280;70341;56.408;10.874;2024-02-14T01:59:00;101300.46;;;18.80;36.97
80781;BME280;70341;56.408;10.874;2024-02-14T02:01:32;101296.50;;;18.80;37.14
80781;BME280;70341;56.408;10.874;2024-02-14T02:04:02;101293.83;;;18.80;37.01
80781;BME280;70341;56.408;10.874;2024-02-14T02:06:32;101292.95;;;18.79;37.07
80781;BME280;70341;56.408;10.874;2024-02-14T02:09:02;101290.46;;;18.79;37.02
80781;BME280;70341;56.408;10.874;2024-02-14T02:12:03;101290.13;;;18.78;37.03
80781;BME280;70341;56.408;10.874;2024-02-14T02:14:35;101291.19;;;18.78;37.14
80781;BME280;70341;56.408;10.874;2024-02-14T02:17:08;101294.44;;;18.78;37.26
80781;BME280;70341;56.408;10.874;2024-02-14T02:19:38;101292.27;;;18.79;37.15
80781;BME280;70341;56.408;10.874;2024-02-14T02:22:07;101291.58;;;18.78;37.19
80781;BME280;70341;56.408;10.874;2024-02-14T02:24:37;101290.26;;;18.79;37.31
80781;BME280;70341;56.408;10.874;2024-02-14T02:27:07;101289.16;;;18.79;37.34
80781;BME280;70341;56.408;10.874;2024-02-14T02:29:36;101285.22;;;18.79;37.37
80781;BME280;70341;56.408;10.874;2024-02-14T02:32:05;101285.34;;;18.80;37.27
80781;BME280;70341;56.408;10.874;2024-02-14T02:34:35;101286.42;;;18.80;37.36
80781;BME280;70341;56.408;10.874;2024-02-14T02:37:05;101282.98;;;18.80;37.32
80781;BME280;70341;56.408;10.874;2024-02-14T02:39:35;101283.17;;;18.80;37.46
80781;BME280;70341;56.408;10.874;2024-02-14T02:42:04;101282.08;;;18.80;37.47
80781;BME280;70341;56.408;10.874;2024-02-14T02:44:34;101283.39;;;18.80;37.47
80781;BME280;70341;56.408;10.874;2024-02-14T02:47:04;101283.86;;;18.80;37.36
80781;BME280;70341;56.408;10.874;2024-02-14T02:49:35;101280.99;;;18.80;37.58
80781;BME280;70341;56.408;10.874;2024-02-14T02:52:04;101283.48;;;18.81;37.56
80781;BME280;70341;56.408;10.874;2024-02-14T02:54:34;101279.20;;;18.80;37.53
80781;BME280;70341;56.408;10.874;2024-02-14T02:57:03;101277.02;;;18.80;37.31
80781;BME280;70341;56.408;10.874;2024-02-14T02:59:35;101272.89;;;18.80;37.69
80781;BME280;70341;56.408;10.874;2024-02-14T03:02:04;101273.21;;;18.81;37.59
80781;BME280;70341;56.408;10.874;2024-02-14T03:04:36;101276.80;;;18.81;37.58
80781;BME280;70341;56.408;10.874;2024-02-14T03:07:22;101278.73;;;18.82;37.68
80781;BME280;70341;56.408;10.874;2024-02-14T03:09:51;101279.09;;;18.82;37.79
80781;BME280;70341;56.408;10.874;2024-02-14T03:12:21;101276.69;;;18.82;37.76
80781;BME280;70341;56.408;10.874;2024-02-14T03:14:51;101274.16;;;18.83;37.77
80781;BME280;70341;56.408;10.874;2024-02-14T03:17:23;101273.07;;;18.83;37.67
80781;BME280;70341;56.408;10.874;2024-02-14T03:19:52;101269.27;;;18.83;37.84
80781;BME280;70341;56.408;10.874;2024-02-14T03:22:23;101271.40;;;18.83;37.70
80781;BME280;70341;56.408;10.874;2024-02-14T03:24:52;101273.00;;;18.84;37.75
80781;BME280;70341;56.408;10.874;2024-02-14T03:27:22;101271.02;;;18.84;37.68
80781;BME280;70341;56.408;10.874;2024-02-14T03:29:51;101268.79;;;18.85;37.72
80781;BME280;70341;56.408;10.874;2024-02-14T03:32:23;101272.23;;;18.85;37.76
80781;BME280;70341;56.408;10.874;2024-02-14T03:34:52;101268.92;;;18.85;37.77
80781;BME280;70341;56.408;10.874;2024-02-14T03:37:22;101266.20;;;18.86;37.72
80781;BME280;70341;56.408;10.874;2024-02-14T03:39:51;101266.72;;;18.86;37.71
80781;BME280;70341;56.408;10.874;2024-02-14T03:42:23;101262.23;;;18.86;37.88
80781;BME280;70341;56.408;10.874;2024-02-14T03:44:52;101268.00;;;18.86;37.81
80781;BME280;70341;56.408;10.874;2024-02-14T03:47:23;101263.09;;;18.86;37.76
80781;BME280;70341;56.408;10.874;2024-02-14T03:49:52;101267.93;;;18.87;37.87
80781;BME280;70341;56.408;10.874;2024-02-14T03:52:22;101269.55;;;18.87;37.86
80781;BME280;70341;56.408;10.874;2024-02-14T03:54:52;101263.09;;;18.87;37.86
80781;BME280;70341;56.408;10.874;2024-02-14T03:57:23;101265.42;;;18.87;38.00
80781;BME280;70341;56.408;10.874;2024-02-14T03:59:55;101265.80;;;18.87;37.85
80781;BME280;70341;56.408;10.874;2024-02-14T04:02:26;101264.34;;;18.87;38.02
80781;BME280;70341;56.408;10.874;2024-02-14T04:04:55;101261.64;;;18.87;37.93
80781;BME280;70341;56.408;10.874;2024-02-14T04:07:26;101258.21;;;18.87;37.97
80781;BME280;70341;56.408;10.874;2024-02-14T04:09:54;101258.23;;;18.87;37.94
80781;BME280;70341;56.408;10.874;2024-02-14T04:12:26;101264.84;;;18.88;37.86
80781;BME280;70341;56.408;10.874;2024-02-14T04:14:54;101261.07;;;18.88;37.90
80781;BME280;70341;56.408;10.874;2024-02-14T04:17:24;101261.95;;;18.88;37.97
80781;BME280;70341;56.408;10.874;2024-02-14T04:19:54;101261.41;;;18.88;37.98
80781;BME280;70341;56.408;10.874;2024-02-14T04:22:25;101262.48;;;18.88;38.01
80781;BME280;70341;56.408;10.874;2024-02-14T04:24:54;101265.89;;;18.89;38.00
80781;BME280;70341;56.408;10.874;2024-02-14T04:27:24;101265.19;;;18.88;38.06
80781;BME280;70341;56.408;10.874;2024-02-14T04:29:53;101264.27;;;18.88;38.05
80781;BME280;70341;56.408;10.874;2024-02-14T04:32:23;101262.14;;;18.88;38.01
80781;BME280;70341;56.408;10.874;2024-02-14T04:34:52;101261.17;;;18.89;38.00
80781;BME280;70341;56.408;10.874;2024-02-14T04:37:23;101264.92;;;18.90;38.11
80781;BME280;70341;56.408;10.874;2024-02-14T04:39:52;101267.62;;;18.90;38.07
80781;BME280;70341;56.408;10.874;2024-02-14T04:42:22;101271.71;;;18.90;38.07
80781;BME280;70341;56.408;10.874;2024-02-14T04:44:51;101273.70;;;18.90;38.06
80781;BME280;70341;56.408;10.874;2024-02-14T04:47:21;101278.54;;;18.91;38.06
80781;BME280;70341;56.408;10.874;2024-02-14T04:49:49;101279.64;;;18.90;38.04
80781;BME280;70341;56.408;10.874;2024-02-14T04:52:19;101278.92;;;18.90;38.11
80781;BME280;70341;56.408;10.874;2024-02-14T04:54:47;101276.39;;;18.90;38.06
80781;BME280;70341;56.408;10.874;2024-02-14T04:57:18;101278.55;;;18.90;38.05
80781;BME280;70341;56.408;10.874;2024-02-14T04:59:48;101272.80;;;18.90;38.02
80781;BME280;70341;56.408;10.874;2024-02-14T05:02:18;101272.46;;;18.90;38.04
80781;BME280;70341;56.408;10.874;2024-02-14T05:04:47;101269.41;;;18.90;38.09
80781;BME280;70341;56.408;10.874;2024-02-14T05:07:20;101272.48;;;18.89;37.96
80781;BME280;70341;56.408;10.874;2024-02-14T05:09:49;101275.19;;;18.89;38.10
80781;BME280;70341;56.408;10.874;2024-02-14T05:12:19;101276.65;;;18.89;38.24
80781;BME280;70341;56.408;10.874;2024-02-14T05:14:48;101277.92;;;18.89;38.16
80781;BME280;70341;56.408;10.874;2024-02-14T05:17:20;101274.84;;;18.89;38.15
80781;BME280;70341;56.408;10.874;2024-02-14T05:19:49;101275.77;;;18.89;38.30
80781;BME280;70341;56.408;10.874;2024-02-14T05:22:19;101275.59;;;18.89;38.32
80781;BME280;70341;56.408;10.874;2024-02-14T05:24:48;101272.21;;;18.88;38.45
80781;BME280;70341;56.408;10.874;2024-02-14T05:27:18;101270.36;;;18.89;38.35
80781;BME280;70341;56.408;10.874;2024-02-14T05:29:48;101268.77;;;18.88;38.26
80781;BME280;70341;56.408;10.874;2024-02-14T05:32:21;101271.64;;;18.89;38.33
80781;BME280;70341;56.408;10.874;2024-02-14T05:34:52;101271.64;;;18.89;38.40
80781;BME280;70341;56.408;10.874;2024-02-14T05:37:22;101266.77;;;18.89;38.52
80781;BME280;70341;56.408;10.874;2024-02-14T05:39:51;101266.95;;;18.89;38.48
80781;BME280;70341;56.408;10.874;2024-02-14T05:42:21;101267.32;;;18.89;38.56
80781;BME280;70341;56.408;10.874;2024-02-14T05:44:50;101271.09;;;18.89;38.46
80781;BME280;70341;56.408;10.874;2024-02-14T05:47:21;101270.75;;;18.88;38.57
80781;BME280;70341;56.408;10.874;2024-02-14T05:49:49;101269.46;;;18.89;38.55
80781;BME280;70341;56.408;10.874;2024-02-14T05:52:20;101271.27;;;18.89;38.47
80781;BME280;70341;56.408;10.874;2024-02-14T05:54:48;101270.90;;;18.89;38.58
80781;BME280;70341;56.408;10.874;2024-02-14T05:57:18;101268.73;;;18.89;38.55
80781;BME280;70341;56.408;10.874;2024-02-14T05:59:48;101270.73;;;18.89;38.61
80781;BME280;70341;56.408;10.874;2024-02-14T06:02:19;101275.96;;;18.89;38.57
80781;BME280;70341;56.408;10.874;2024-02-14T06:04:48;101278.67;;;18.89;38.59
80781;BME280;70341;56.408;10.874;2024-02-14T06:07:18;101278.66;;;18.89;38.68
80781;BME280;70341;56.408;10.874;2024-02-14T06:09:47;101281.39;;;18.88;38.65
80781;BME280;70341;56.408;10.874;2024-02-14T06:12:17;101276.89;;;18.88;38.65
80781;BME280;70341;56.408;10.874;2024-02-14T06:14:49;101281.77;;;18.88;38.67
80781;BME280;70341;56.408;10.874;2024-02-14T06:17:19;101283.02;;;18.88;38.54
80781;BME280;70341;56.408;10.874;2024-02-14T06:19:47;101284.83;;;18.88;38.66
80781;BME280;70341;56.408;10.874;2024-02-14T06:22:18;101286.09;;;18.88;38.64
80781;BME280;70341;56.408;10.874;2024-02-14T06:24:47;101289.68;;;18.88;38.55
80781;BME280;70341;56.408;10.874;2024-02-14T06:27:17;101294.19;;;18.88;38.50
80781;BME280;70341;56.408;10.874;2024-02-14T06:29:48;101295.80;;;18.88;38.56
80781;BME280;70341;56.408;10.874;2024-02-14T06:32:19;101295.09;;;18.88;38.51
80781;BME280;70341;56.408;10.874;2024-02-14T06:34:49;101302.84;;;18.88;38.63
80781;BME280;70341;56.408;10.874;2024-02-14T06:37:19;101302.47;;;18.88;38.58
80781;BME280;70341;56.408;10.874;2024-02-14T06:39:47;101305.55;;;18.87;38.59
80781;BME280;70341;56.408;10.874;2024-02-14T06:42:17;101306.09;;;18.87;38.65
80781;BME280;70341;56.408;10.874;2024-02-14T06:44:46;101309.70;;;18.87;38.60
80781;BME280;70341;56.408;10.874;2024-02-14T06:47:16;101312.42;;;18.87;38.62
80781;BME280;70341;56.408;10.874;2024-02-14T06:49:46;101313.01;;;18.86;38.51
80781;BME280;70341;56.408;10.874;2024-02-14T06:52:15;101314.48;;;18.86;38.65
80781;BME280;70341;56.408;10.874;2024-02-14T06:54:45;101318.61;;;18.86;38.64
80781;BME280;70341;56.408;10.874;2024-02-14T06:57:15;101316.88;;;18.85;38.62
80781;BME280;70341;56.408;10.874;2024-02-14T06:59:44;101319.90;;;18.85;38.62
80781;BME280;70341;56.408;10.874;2024-02-14T07:02:15;101323.33;;;18.85;38.68
80781;BME280;70341;56.408;10.874;2024-02-14T07:04:45;101327.33;;;18.85;38.69
80781;BME280;70341;56.408;10.874;2024-02-14T07:07:15;101325.21;;;18.84;38.67
80781;BME280;70341;56.408;10.874;2024-02-14T07:09:44;101327.72;;;18.84;38.58
80781;BME280;70341;56.408;10.874;2024-02-14T07:12:14;101330.25;;;18.84;38.52
80781;BME280;70341;56.408;10.874;2024-02-14T07:14:43;101333.69;;;18.84;38.68
80781;BME280;70341;56.408;10.874;2024-02-14T07:17:13;101334.27;;;18.83;38.58
80781;BME280;70341;56.408;10.874;2024-02-14T07:19:42;101337.12;;;18.84;38.64
80781;BME280;70341;56.408;10.874;2024-02-14T07:22:12;101341.08;;;18.84;38.64
80781;BME280;70341;56.408;10.874;2024-02-14T07:24:42;101344.88;;;18.84;38.63
80781;BME280;70341;56.408;10.874;2024-02-14T07:27:15;101347.05;;;18.83;38.41
80781;BME280;70341;56.408;10.874;2024-02-14T07:29:43;101346.70;;;18.83;38.47
80781;BME280;70341;56.408;10.874;2024-02-14T07:32:17;101348.33;;;18.83;38.59
80781;BME280;70341;56.408;10.874;2024-02-14T07:34:51;101354.27;;;18.83;38.62
80781;BME280;70341;56.408;10.874;2024-02-14T07:37:20;101348.89;;;18.83;38.58
80781;BME280;70341;56.408;10.874;2024-02-14T07:39:51;101349.27;;;18.82;38.61
80781;BME280;70341;56.408;10.874;2024-02-14T07:42:20;101347.67;;;18.82;38.62
80781;BME280;70341;56.408;10.874;2024-02-14T07:44:53;101346.06;;;18.82;38.46
80781;BME280;70341;56.408;10.874;2024-02-14T07:47:22;101345.90;;;18.82;38.65
80781;BME280;70341;56.408;10.874;2024-02-14T07:49:53;101341.61;;;18.81;38.60
80781;BME280;70341;56.408;10.874;2024-02-14T07:52:22;101343.40;;;18.81;38.64
80781;BME280;70341;56.408;10.874;2024-02-14T07:54:54;101342.69;;;18.81;38.67
80781;BME280;70341;56.408;10.874;2024-02-14T07:57:23;101346.29;;;18.81;38.55
80781;BME280;70341;56.408;10.874;2024-02-14T07:59:54;101342.49;;;18.81;38.56
80781;BME280;70341;56.408;10.874;2024-02-14T08:02:22;101347.73;;;18.81;38.53
80781;BME280;70341;56.408;10.874;2024-02-14T08:04:52;101343.10;;;18.81;38.59
80781;BME280;70341;56.408;10.874;2024-02-14T08:07:22;101348.85;;;18.81;38.64
80781;BME280;70341;56.408;10.874;2024-02-14T08:09:51;101344.73;;;18.80;38.66
80781;BME280;70341;56.408;10.874;2024-02-14T08:12:21;101346.57;;;18.80;38.63
80781;BME280;70341;56.408;10.874;2024-02-14T08:14:51;101349.48;;;18.79;38.50
80781;BME280;70341;56.408;10.874;2024-02-14T08:17:20;101348.77;;;18.79;38.69
80781;BME280;70341;56.408;10.874;2024-02-14T08:19:50;101350.61;;;18.79;38.63
80781;BME280;70341;56.408;10.874;2024-02-14T08:22:19;101352.95;;;18.79;38.60
80781;BME280;70341;56.408;10.874;2024-02-14T08:24:50;101350.64;;;18.78;38.64
80781;BME280;70341;56.408;10.874;2024-02-14T08:27:20;101355.16;;;18.78;38.65
80781;BME280;70341;56.408;10.874;2024-02-14T08:29:50;101355.40;;;18.77;38.60
80781;BME280;70341;56.408;10.874;2024-02-14T08:32:20;101359.30;;;18.78;38.48
80781;BME280;70341;56.408;10.874;2024-02-14T08:34:54;101357.36;;;18.77;38.65
80781;BME280;70341;56.408;10.874;2024-02-14T08:37:24;101358.08;;;18.77;38.71
80781;BME280;70341;56.408;10.874;2024-02-14T08:39:57;101357.52;;;18.78;38.67
80781;BME280;70341;56.408;10.874;2024-02-14T08:42:26;101357.54;;;18.77;38.63
80781;BME280;70341;56.408;10.874;2024-02-14T08:44:56;101354.66;;;18.77;38.65
80781;BME280;70341;56.408;10.874;2024-02-14T08:47:25;101357.36;;;18.77;38.69
80781;BME280;70341;56.408;10.874;2024-02-14T08:49:55;101358.77;;;18.78;38.66
80781;BME280;70341;56.408;10.874;2024-02-14T08:52:25;101364.02;;;18.77;38.57
80781;BME280;70341;56.408;10.874;2024-02-14T08:54:55;101367.20;;;18.78;38.65
80781;BME280;70341;56.408;10.874;2024-02-14T08:57:24;101370.09;;;18.78;38.59
80781;BME280;70341;56.408;10.874;2024-02-14T08:59:55;101369.53;;;18.78;38.69
80781;BME280;70341;56.408;10.874;2024-02-14T09:02:26;101369.64;;;18.80;38.64
80781;BME280;70341;56.408;10.874;2024-02-14T09:04:56;101368.01;;;18.80;38.65
80781;BME280;70341;56.408;10.874;2024-02-14T09:07:25;101368.50;;;18.80;38.49
80781;BME280;70341;56.408;10.874;2024-02-14T09:09:56;101366.48;;;18.81;38.74
80781;BME280;70341;56.408;10.874;2024-02-14T09:12:24;101365.52;;;18.82;38.54
80781;BME280;70341;56.408;10.874;2024-02-14T09:14:56;101367.64;;;18.82;38.66
80781;BME280;70341;56.408;10.874;2024-02-14T09:17:24;101367.20;;;18.84;38.71
80781;BME280;70341;56.408;10.874;2024-02-14T09:19:55;101366.81;;;18.84;38.63
80781;BME280;70341;56.408;10.874;2024-02-14T09:22:24;101370.51;;;18.85;38.63
80781;BME280;70341;56.408;10.874;2024-02-14T09:24:55;101368.50;;;18.85;38.58
80781;BME280;70341;56.408;10.874;2024-02-14T09:27:25;101365.37;;;18.87;38.66
80781;BME280;70341;56.408;10.874;2024-02-14T09:29:57;101368.94;;;18.88;38.57
80781;BME280;70341;56.408;10.874;2024-02-14T09:32:25;101369.42;;;18.89;38.62
80781;BME280;70341;56.408;10.874;2024-02-14T09:34:55;101369.54;;;18.90;38.68
80781;BME280;70341;56.408;10.874;2024-02-14T09:37:27;101373.09;;;18.91;38.60
80781;BME280;70341;56.408;10.874;2024-02-14T09:39:58;101371.23;;;18.92;38.71
80781;BME280;70341;56.408;10.874;2024-02-14T09:42:38;101374.07;;;18.92;38.60
80781;BME280;70341;56.408;10.874;2024-02-14T09:45:15;101377.05;;;18.93;38.64
80781;BME280;70341;56.408;10.874;2024-02-14T09:47:54;101375.21;;;18.94;38.47
80781;BME280;70341;56.408;10.874;2024-02-14T09:50:24;101376.99;;;18.94;38.56
80781;BME280;70341;56.408;10.874;2024-02-14T09:52:56;101378.93;;;18.95;38.54
80781;BME280;70341;56.408;10.874;2024-02-14T09:55:27;101378.94;;;18.95;38.61
80781;BME280;70341;56.408;10.874;2024-02-14T09:57:58;101380.75;;;18.94;38.64
80781;BME280;70341;56.408;10.874;2024-02-14T10:00:28;101384.14;;;18.95;38.55
80781;BME280;70341;56.408;10.874;2024-02-14T10:03:01;101387.59;;;18.94;38.61
80781;BME280;70341;56.408;10.874;2024-02-14T10:05:30;101389.05;;;18.94;38.66
80781;BME280;70341;56.408;10.874;2024-02-14T10:08:02;101387.28;;;18.94;38.74
80781;BME280;70341;56.408;10.874;2024-02-14T10:10:34;101387.30;;;18.94;38.65
80781;BME280;70341;56.408;10.874;2024-02-14T10:13:08;101390.52;;;18.94;38.64
80781;BME280;70341;56.408;10.874;2024-02-14T10:15:37;101386.80;;;18.93;38.65
80781;BME280;70341;56.408;10.874;2024-02-14T10:18:07;101385.17;;;18.93;38.52
80781;BME280;70341;56.408;10.874;2024-02-14T10:20:36;101385.06;;;18.92;38.56
80781;BME280;70341;56.408;10.874;2024-02-14T10:23:08;101387.38;;;18.92;38.70
80781;BME280;70341;56.408;10.874;2024-02-14T10:25:38;101390.08;;;18.92;38.59
80781;BME280;70341;56.408;10.874;2024-02-14T10:28:09;101392.98;;;18.92;38.64
80781;BME280;70341;56.408;10.874;2024-02-14T10:30:37;101393.11;;;18.93;38.74
80781;BME280;70341;56.408;10.874;2024-02-14T10:33:07;101394.75;;;18.92;38.69
80781;BME280;70341;56.408;10.874;2024-02-14T10:35:54;101390.37;;;18.93;38.59
80781;BME280;70341;56.408;10.874;2024-02-14T10:38:32;101395.34;;;18.94;38.59
80781;BME280;70341;56.408;10.874;2024-02-14T10:41:02;101392.10;;;18.94;38.53
80781;BME280;70341;56.408;10.874;2024-02-14T10:43:40;101391.67;;;18.95;38.62
80781;BME280;70341;56.408;10.874;2024-02-14T10:46:23;101391.20;;;18.97;38.47
80781;BME280;70341;56.408;10.874;2024-02-14T10:49:03;101394.32;;;18.99;38.53
80781;BME280;70341;56.408;10.874;2024-02-14T10:51:35;101392.11;;;18.99;38.57
80781;BME280;70341;56.408;10.874;2024-02-14T10:54:10;101389.52;;;19.01;38.43
80781;BME280;70341;56.408;10.874;2024-02-14T10:56:49;101392.11;;;19.03;38.51
80781;BME280;70341;56.408;10.874;2024-02-14T10:59:25;101387.75;;;19.03;38.56
80781;BME280;70341;56.408;10.874;2024-02-14T11:01:57;101386.57;;;19.05;38.51
80781;BME280;70341;56.408;10.874;2024-02-14T11:04:27;101388.28;;;19.06;38.48
80781;BME280;70341;56.408;10.874;2024-02-14T11:06:58;101390.02;;;19.07;38.40
80781;BME280;70341;56.408;10.874;2024-02-14T11:09:37;101389.60;;;19.08;38.59
80781;BME280;70341;56.408;10.874;2024-02-14T11:12:13;101391.86;;;19.09;38.36
80781;BME280;70341;56.408;10.874;2024-02-14T11:14:47;101391.23;;;19.10;38.28
80781;BME280;70341;56.408;10.874;2024-02-14T11:17:15;101388.29;;;19.11;38.36
80781;BME280;70341;56.408;10.874;2024-02-14T11:19:47;101384.10;;;19.11;38.37
80781;BME280;70341;56.408;10.874;2024-02-14T11:22:20;101382.42;;;19.12;38.40
80781;BME280;70341;56.408;10.874;2024-02-14T11:24:50;101384.55;;;19.13;38.38
80781;BME280;70341;56.408;10.874;2024-02-14T11:27:18;101386.84;;;19.14;38.40
80781;BME280;70341;56.408;10.874;2024-02-14T11:30:06;101384.45;;;19.15;38.42
80781;BME280;70341;56.408;10.874;2024-02-14T11:32:37;101386.73;;;19.16;38.33
80781;BME280;70341;56.408;10.874;2024-02-14T11:35:11;101389.31;;;19.18;38.37
80781;BME280;70341;56.408;10.874;2024-02-14T11:37:39;101387.63;;;19.19;38.35
80781;BME280;70341;56.408;10.874;2024-02-14T11:40:10;101390.98;;;19.20;38.34
80781;BME280;70341;56.408;10.874;2024-02-14T11:42:39;101390.36;;;19.21;38.23
80781;BME280;70341;56.408;10.874;2024-02-14T11:45:09;101387.64;;;19.21;38.22
80781;BME280;70341;56.408;10.874;2024-02-14T11:47:40;101386.52;;;19.22;38.18
80781;BME280;70341;56.408;10.874;2024-02-14T11:50:11;101386.48;;;19.23;38.25
80781;BME280;70341;56.408;10.874;2024-02-14T11:52:40;101383.71;;;19.23;38.21
80781;BME280;70341;56.408;10.874;2024-02-14T11:55:10;101386.33;;;19.25;38.23
80781;BME280;70341;56.408;10.874;2024-02-14T11:57:41;101383.61;;;19.25;38.34
80781;BME280;70341;56.408;10.874;2024-02-14T12:00:14;101385.45;;;19.27;38.28
80781;BME280;70341;56.408;10.874;2024-02-14T12:02:43;101383.04;;;19.28;38.10
80781;BME280;70341;56.408;10.874;2024-02-14T12:05:13;101380.92;;;19.30;38.16
80781;BME280;70341;56.408;10.874;2024-02-14T12:07:44;101387.07;;;19.32;38.08
80781;BME280;70341;56.408;10.874;2024-02-14T12:10:14;101386.79;;;19.34;38.21
80781;BME280;70341;56.408;10.874;2024-02-14T12:12:45;101390.04;;;19.36;38.03
80781;BME280;70341;56.408;10.874;2024-02-14T12:15:16;101393.22;;;19.37;37.99
80781;BME280;70341;56.408;10.874;2024-02-14T12:17:47;101394.19;;;19.39;38.07
80781;BME280;70341;56.408;10.874;2024-02-14T12:20:22;101392.94;;;19.39;37.96
80781;BME280;70341;56.408;10.874;2024-02-14T12:22:52;101393.23;;;19.40;38.09
80781;BME280;70341;56.408;10.874;2024-02-14T12:25:22;101392.16;;;19.40;38.09
80781;BME280;70341;56.408;10.874;2024-02-14T12:27:53;101394.30;;;19.40;37.98
80781;BME280;70341;56.408;10.874;2024-02-14T12:30:26;101392.14;;;19.40;38.01
80781;BME280;70341;56.408;10.874;2024-02-14T12:33:04;101396.89;;;19.42;37.92
80781;BME280;70341;56.408;10.874;2024-02-14T12:35:34;101394.06;;;19.41;37.97
80781;BME280;70341;56.408;10.874;2024-02-14T12:38:04;101395.31;;;19.41;37.95
80781;BME280;70341;56.408;10.874;2024-02-14T12:40:35;101396.73;;;19.42;38.04
80781;BME280;70341;56.408;10.874;2024-02-14T12:43:05;101394.03;;;19.41;37.93
80781;BME280;70341;56.408;10.874;2024-02-14T12:45:35;101396.16;;;19.42;37.95
80781;BME280;70341;56.408;10.874;2024-02-14T12:48:10;101397.77;;;19.42;37.92
80781;BME280;70341;56.408;10.874;2024-02-14T12:50:41;101397.23;;;19.42;38.04
80781;BME280;70341;56.408;10.874;2024-02-14T12:53:12;101401.56;;;19.42;38.03
80781;BME280;70341;56.408;10.874;2024-02-14T12:55:44;101399.57;;;19.42;37.97
80781;BME280;70341;56.408;10.874;2024-02-14T12:58:16;101397.21;;;19.42;38.03